createdAt,value
2019-03-31T00:07:46.380Z,37.93
2019-03-31T00:19:03.969Z,37.77
2019-03-31T00:49:19.955Z,39.93
2019-03-31T00:56:50.075Z,42.97
2019-03-31T01:09:05.092Z,44.90
2019-03-31T01:12:05.300Z,44.97
2019-03-31T01:15:07.431Z,45.37
2019-03-31T01:22:40.011Z,47.73
2019-03-31T01:29:11.629Z,47.03
2019-03-31T01:31:55.660Z,47.10
2019-03-31T01:36:40.799Z,48.47
2019-03-31T01:37:46.751Z,49.50
2019-03-31T01:40:49.572Z,50.47
2019-03-31T01:44:30.016Z,46.83
2019-03-31T01:48:20.052Z,48.90
2019-03-31T01:51:23.125Z,49.83
2019-03-31T01:55:10.570Z,47.07
2019-03-31T01:58:02.159Z,49.53
2019-03-31T02:00:57.365Z,48.77
2019-03-31T02:03:48.260Z,50.13
2019-03-31T02:06:30.475Z,50.90
2019-03-31T02:09:14.345Z,49.80
2019-03-31T02:11:56.455Z,49.00
2019-03-31T02:14:24.576Z,49.57
2019-03-31T02:16:59.194Z,51.03
2019-03-31T02:19:48.525Z,52.57
2019-03-31T02:22:27.937Z,50.97
2019-03-31T02:25:23.993Z,52.33
2019-03-31T02:28:13.503Z,49.60
2019-03-31T02:31:03.785Z,49.60
2019-03-31T02:33:45.218Z,48.83
2019-03-31T02:36:55.897Z,49.07
2019-03-31T02:39:37.533Z,51.93
2019-03-31T02:42:38.542Z,56.90
2019-03-31T02:45:24.636Z,55.13
2019-03-31T02:48:31.745Z,56.83
2019-03-31T02:51:23.046Z,51.63
2019-03-31T02:54:28.655Z,53.60
2019-03-31T02:57:35.685Z,54.57
2019-03-31T03:00:42.489Z,54.67
2019-03-31T03:03:31.556Z,55.07
2019-03-31T03:06:44.248Z,53.83
2019-03-31T03:09:54.669Z,53.57
2019-03-31T03:12:53.210Z,54.50
2019-03-31T03:18:50.380Z,53.03
2019-03-31T03:21:50.635Z,53.33
2019-03-31T03:25:06.620Z,53.77
2019-03-31T03:28:16.911Z,55.08
2019-03-31T03:31:03.987Z,54.13
2019-03-31T03:34:06.022Z,52.63
2019-03-31T03:36:52.633Z,54.17
2019-03-31T03:43:17.764Z,55.40
2019-03-31T03:46:36.806Z,52.80
2019-03-31T03:50:07.004Z,54.00
2019-03-31T03:53:09.686Z,53.30
2019-03-31T03:56:20.364Z,51.83
2019-03-31T03:59:11.475Z,54.63
2019-03-31T04:01:53.662Z,55.53
2019-03-31T04:04:41.313Z,57.00
2019-03-31T04:07:45.048Z,57.20
2019-03-31T04:11:36.882Z,58.97
2019-03-31T04:14:23.129Z,55.30
2019-03-31T04:17:18.930Z,55.90
2019-03-31T04:20:10.847Z,57.53
2019-03-31T04:23:20.324Z,54.53
2019-03-31T04:26:08.212Z,53.30
2019-03-31T04:29:11.708Z,60.10
2019-03-31T04:31:59.499Z,56.10
2019-03-31T04:34:55.359Z,57.40
2019-03-31T04:37:40.726Z,53.47
2019-03-31T04:40:30.056Z,54.60
2019-03-31T04:43:44.857Z,54.60
2019-03-31T04:46:21.316Z,52.50
2019-03-31T04:52:47.469Z,53.10
2019-03-31T04:55:52.669Z,50.40
2019-03-31T04:58:37.087Z,51.03
2019-03-31T05:01:25.352Z,48.27
2019-03-31T05:04:20.708Z,49.93
2019-03-31T05:07:12.844Z,49.17
2019-03-31T05:09:58.184Z,48.33
2019-03-31T05:12:42.280Z,51.93
2019-03-31T05:15:53.748Z,48.90
2019-03-31T05:18:59.580Z,48.53
2019-03-31T05:22:02.048Z,48.73
2019-03-31T05:25:12.521Z,48.30
2019-03-31T05:27:59.566Z,44.80
2019-03-31T05:30:51.110Z,47.88
2019-03-31T05:34:18.889Z,48.03
2019-03-31T05:41:33.297Z,47.40
2019-03-31T05:47:43.796Z,43.37
2019-03-31T05:51:04.663Z,42.07
2019-03-31T06:05:35.127Z,41.10
2019-03-31T06:08:14.832Z,39.30
2019-03-31T06:11:28.284Z,40.33
2019-03-31T06:14:31.182Z,36.27
2019-03-31T06:17:42.626Z,40.57
2019-03-31T06:20:39.822Z,38.30
2019-03-31T06:23:38.225Z,40.57
2019-03-31T06:26:47.600Z,38.50
2019-03-31T06:29:57.273Z,37.07
2019-03-31T06:32:32.506Z,38.00
2019-03-31T06:35:17.494Z,33.33
2019-03-31T06:38:14.272Z,32.20
2019-03-31T06:40:56.591Z,30.50
2019-03-31T06:46:41.149Z,33.87
2019-03-31T06:49:49.238Z,35.90
2019-03-31T06:52:48.813Z,38.60
2019-03-31T07:03:34.893Z,30.90
2019-03-31T07:06:19.807Z,29.73
2019-03-31T07:09:49.822Z,29.23
2019-03-31T07:16:19.144Z,34.87
2019-03-31T07:19:50.106Z,33.77
2019-03-31T07:23:07.666Z,34.50
2019-03-31T07:25:50.576Z,33.60
2019-03-31T07:29:00.128Z,33.87
2019-03-31T07:31:55.686Z,37.43
2019-03-31T07:34:51.207Z,33.70
2019-03-31T07:38:01.874Z,37.87
2019-03-31T07:40:56.787Z,35.23
2019-03-31T07:43:45.037Z,34.20
2019-03-31T07:46:58.277Z,31.73
2019-03-31T07:50:20.740Z,33.67
2019-03-31T07:53:33.306Z,32.47
2019-03-31T07:56:34.573Z,34.00
2019-03-31T07:59:42.411Z,32.90
2019-03-31T08:03:08.192Z,31.90
2019-03-31T08:06:33.199Z,33.40
2019-03-31T08:09:43.249Z,33.70
2019-03-31T08:13:20.776Z,28.20
2019-03-31T08:16:23.896Z,31.45
2019-03-31T08:20:19.486Z,32.93
2019-03-31T08:23:27.815Z,29.13
2019-03-31T08:26:26.259Z,26.03
2019-03-31T08:30:11.941Z,25.17
2019-03-31T08:37:00.532Z,28.73
2019-03-31T08:40:36.527Z,22.27
2019-03-31T08:45:30.313Z,23.92
2019-03-31T08:47:55.475Z,22.97
2019-03-31T09:02:49.273Z,17.53
2019-03-31T09:13:47.539Z,18.73
2019-03-31T09:25:36.959Z,16.23
2019-03-31T09:32:00.664Z,16.83
2019-03-31T09:39:22.186Z,18.83
2019-03-31T09:54:55.123Z,19.50
2019-03-31T10:02:40.268Z,17.80
2019-03-31T10:10:00.777Z,24.70
2019-03-31T10:21:34.707Z,19.27
2019-03-31T10:25:22.107Z,16.13
2019-03-31T10:35:22.421Z,16.17
2019-03-31T10:39:16.336Z,15.50
2019-03-31T10:43:02.341Z,15.68
2019-03-31T10:46:32.498Z,14.90
2019-03-31T10:50:08.196Z,15.90
2019-03-31T10:53:46.161Z,15.87
2019-03-31T10:57:22.744Z,16.17
2019-03-31T11:01:01.480Z,16.27
2019-03-31T11:32:14.142Z,14.77
2019-03-31T11:51:46.492Z,16.13
2019-03-31T12:06:14.590Z,11.67
2019-03-31T12:28:43.498Z,15.30
2019-03-31T12:32:19.824Z,12.87
2019-03-31T12:36:20.536Z,13.70
2019-03-31T12:39:43.764Z,10.87
2019-03-31T12:42:49.241Z,10.33
2019-03-31T12:46:01.869Z,12.20
2019-03-31T12:49:06.549Z,10.87
2019-03-31T12:52:52.621Z,9.93
2019-03-31T12:55:59.977Z,29.97
2019-03-31T12:59:51.543Z,17.27
2019-03-31T13:26:29.671Z,8.50
2019-03-31T13:33:55.107Z,9.30
2019-03-31T14:33:27.422Z,8.53
2019-03-31T15:21:43.861Z,8.65
2019-03-31T15:55:01.625Z,10.87
2019-03-31T16:22:39.136Z,5.20
2019-03-31T16:46:21.505Z,4.27
2019-03-31T16:49:42.790Z,4.90
2019-03-31T16:53:13.563Z,4.47
2019-03-31T16:56:32.596Z,5.23
2019-03-31T17:08:13.552Z,3.73
2019-03-31T17:52:04.704Z,4.07
2019-03-31T17:55:19.547Z,4.73
2019-03-31T17:58:56.120Z,3.70
2019-03-31T18:02:23.294Z,4.87
2019-03-31T18:14:20.364Z,4.80
2019-03-31T18:21:41.836Z,5.57
2019-03-31T19:37:16.809Z,3.92
2019-03-31T19:41:05.362Z,2.83
2019-03-31T20:03:06.131Z,2.50
2019-03-31T20:06:49.393Z,2.90
2019-03-31T20:22:07.684Z,3.07
2019-03-31T20:41:08.138Z,2.97
2019-03-31T20:48:38.605Z,2.40
2019-03-31T20:55:53.937Z,2.87
2019-03-31T21:03:08.684Z,2.90
2019-03-31T21:07:16.983Z,1.97
2019-03-31T21:11:31.918Z,3.63
2019-03-31T21:19:32.311Z,3.03
2019-03-31T21:22:55.272Z,2.53
2019-03-31T21:25:54.511Z,3.07
2019-03-31T21:37:01.183Z,2.93
2019-03-31T21:41:01.683Z,2.92
2019-03-31T21:54:52.104Z,3.73
2019-03-31T22:02:20.892Z,7.00
2019-03-31T22:06:01.947Z,3.70
2019-03-31T22:09:15.459Z,3.27
2019-03-31T22:12:49.732Z,3.33
2019-03-31T22:17:23.747Z,2.80
2019-03-31T22:32:16.867Z,3.20
2019-03-31T22:35:04.913Z,3.90
2019-03-31T22:38:17.859Z,3.70
2019-03-31T22:41:36.328Z,2.63
2019-03-31T22:45:24.189Z,3.10
2019-03-31T22:48:32.722Z,2.90
2019-03-31T22:52:19.825Z,2.80
2019-03-31T22:55:25.383Z,2.90
2019-03-31T22:58:45.708Z,3.87
2019-03-31T23:07:49.337Z,3.50
2019-03-31T23:10:41.371Z,3.40
2019-03-31T23:13:26.220Z,4.30
2019-03-31T23:16:16.233Z,2.27
2019-03-31T23:18:54.763Z,3.87
2019-03-31T23:22:00.243Z,3.00
2019-03-31T23:24:48.581Z,3.07
2019-03-31T23:27:37.190Z,3.30
2019-03-31T23:30:43.427Z,3.30
2019-03-31T23:33:30.825Z,4.10
2019-03-31T23:36:21.135Z,3.97
2019-03-31T23:39:26.981Z,3.07
2019-03-31T23:42:32.567Z,3.03
2019-03-31T23:46:01.850Z,3.40
2019-03-31T23:48:59.321Z,3.53
2019-03-31T23:51:36.623Z,3.00
2019-03-31T23:54:33.393Z,3.43
2019-03-31T23:57:20.264Z,3.63
